Time;durP1;ratioP1;P1;durP2;ratioP2;P2;SDS_P1;SDS_P2;PMS_P1;PMS_P2;Temp;Humidity;BMP_temperature;BMP_pressure;BME280_temperature;BME280_humidity;BME280_pressure;Samples;Min_cycle;Max_cycle;Signal;HPM_P1;HPM_P2
2023/12/31 00:00:35;;;;;;;4.07;2.72;;;10.20;99.90;;;;;;4231388;28;20043;-66
2023/12/31 00:02:37;;;;;;;7.30;2.88;;;10.20;99.90;;;;;;4231466;28;20047;-67
2023/12/31 00:04:40;;;;;;;5.80;2.63;;;10.20;99.90;;;;;;4231036;28;20347;-73
2023/12/31 00:06:42;;;;;;;6.35;2.88;;;10.20;99.90;;;;;;4231782;28;20461;-66
2023/12/31 00:08:44;;;;;;;4.50;2.60;;;10.30;99.90;;;;;;4213263;28;20154;-65
2023/12/31 00:10:46;;;;;;;3.83;2.67;;;10.20;99.90;;;;;;4231176;28;20058;-66
2023/12/31 00:12:48;;;;;;;3.90;2.58;;;10.20;99.90;;;;;;4231287;28;20734;-65
2023/12/31 00:14:51;;;;;;;6.60;3.00;;;10.20;99.90;;;;;;4216851;28;20143;-66
2023/12/31 00:16:54;;;;;;;3.78;2.55;;;10.30;99.90;;;;;;4213986;28;20044;-65
2023/12/31 00:18:56;;;;;;;5.45;2.97;;;10.30;99.90;;;;;;4213820;28;20080;-66
2023/12/31 00:20:59;;;;;;;3.80;2.67;;;10.30;99.90;;;;;;4213592;28;20039;-65
2023/12/31 00:23:01;;;;;;;5.13;2.50;;;10.30;99.90;;;;;;4214410;28;20044;-70
2023/12/31 00:25:05;;;;;;;4.25;2.80;;;10.30;99.90;;;;;;4214315;28;20483;-67
2023/12/31 00:27:07;;;;;;;4.18;2.90;;;10.30;99.90;;;;;;4213706;28;20052;-66
2023/12/31 00:29:09;;;;;;;4.18;2.92;;;10.30;99.90;;;;;;4195903;28;20057;-66
2023/12/31 00:31:11;;;;;;;3.78;2.50;;;10.30;99.90;;;;;;4214803;28;20067;-66
2023/12/31 00:33:16;;;;;;;6.68;2.85;;;10.30;99.90;;;;;;4216366;28;20050;-65
2023/12/31 00:35:19;;;;;;;6.28;3.33;;;10.20;99.90;;;;;;4217192;28;20055;-64
2023/12/31 00:37:21;;;;;;;4.72;3.22;;;10.20;99.90;;;;;;4216705;28;20392;-65
2023/12/31 00:39:23;;;;;;;4.95;2.80;;;10.30;99.90;;;;;;4216406;28;20055;-66
2023/12/31 00:41:25;;;;;;;5.47;3.00;;;10.20;99.90;;;;;;4217025;28;20424;-66
2023/12/31 00:43:27;;;;;;;3.25;2.67;;;10.30;99.90;;;;;;4216675;28;20044;-66
2023/12/31 00:45:29;;;;;;;5.95;3.28;;;10.30;99.90;;;;;;4198495;28;20041;-66
2023/12/31 00:47:31;;;;;;;4.68;2.90;;;10.20;99.90;;;;;;4216514;28;20048;-65
2023/12/31 00:49:34;;;;;;;4.22;2.83;;;10.30;99.90;;;;;;4216678;28;20501;-65
2023/12/31 00:51:36;;;;;;;3.47;3.03;;;10.30;99.90;;;;;;4216090;28;20112;-66
2023/12/31 00:53:39;;;;;;;5.43;2.95;;;10.30;99.90;;;;;;4216531;28;20095;-67
2023/12/31 00:55:43;;;;;;;4.18;2.92;;;10.30;99.90;;;;;;4216188;28;20075;-66
2023/12/31 00:57:45;;;;;;;3.30;1.88;;;10.30;99.90;;;;;;4216129;28;20048;-66
2023/12/31 00:59:47;;;;;;;3.67;2.78;;;10.30;99.90;;;;;;4217843;28;20056;-67
2023/12/31 01:01:50;;;;;;;4.97;3.30;;;10.30;99.90;;;;;;4233034;28;20039;-66
2023/12/31 01:03:52;;;;;;;4.40;3.13;;;10.30;99.90;;;;;;4233076;28;20052;-65
2023/12/31 01:06:04;;;;;;;3.88;2.95;;;10.30;99.90;;;;;;4233692;28;20048;-66
2023/12/31 01:08:07;;;;;;;4.00;3.20;;;10.30;99.90;;;;;;4233302;28;20051;-66
2023/12/31 01:10:10;;;;;;;4.43;3.08;;;10.30;99.90;;;;;;4233505;28;20047;-67
2023/12/31 01:12:13;;;;;;;4.22;3.03;;;10.30;99.90;;;;;;4233262;28;20479;-66
2023/12/31 01:14:15;;;;;;;4.25;2.95;;;10.30;99.90;;;;;;4224368;28;20071;-66
2023/12/31 01:16:17;;;;;;;5.07;2.88;;;10.30;99.90;;;;;;4216072;28;20044;-65
2023/12/31 01:18:19;;;;;;;4.97;3.20;;;10.30;99.90;;;;;;4216386;28;20048;-65
2023/12/31 01:20:24;;;;;;;3.95;2.58;;;10.30;99.90;;;;;;4198942;28;20048;-66
2023/12/31 01:22:28;;;;;;;4.28;3.25;;;10.40;99.90;;;;;;4216209;28;20071;-66
2023/12/31 01:24:30;;;;;;;5.13;3.03;;;10.40;99.90;;;;;;4216441;28;20392;-65
2023/12/31 01:26:32;;;;;;;3.83;3.33;;;10.40;99.90;;;;;;4215597;28;20092;-66
2023/12/31 01:28:34;;;;;;;4.10;3.10;;;10.40;99.90;;;;;;4215289;28;20438;-67
2023/12/31 01:30:36;;;;;;;4.00;3.15;;;10.40;99.90;;;;;;4215200;28;20048;-65
2023/12/31 01:32:41;;;;;;;6.75;3.30;;;10.30;99.90;;;;;;4197088;28;20061;-65
2023/12/31 01:34:43;;;;;;;5.18;2.90;;;10.30;99.90;;;;;;4215460;28;20040;-65
2023/12/31 01:36:45;;;;;;;4.38;3.05;;;10.30;99.90;;;;;;4215136;28;20044;-66
2023/12/31 01:38:49;;;;;;;4.43;3.10;;;10.30;99.90;;;;;;4215512;28;20044;-66
2023/12/31 01:40:52;;;;;;;6.63;3.28;;;10.40;99.90;;;;;;4215323;28;20070;-66
2023/12/31 01:42:54;;;;;;;4.95;3.05;;;10.40;99.90;;;;;;4215066;28;20051;-66
2023/12/31 01:44:56;;;;;;;4.70;2.90;;;10.30;99.90;;;;;;4215251;28;20040;-67
2023/12/31 01:46:58;;;;;;;3.33;2.80;;;10.40;99.90;;;;;;4214731;28;20040;-65
2023/12/31 01:49:01;;;;;;;4.10;3.08;;;10.30;99.90;;;;;;4196798;28;20422;-66
2023/12/31 01:51:05;;;;;;;4.40;2.72;;;10.30;99.90;;;;;;4215146;28;20055;-66
2023/12/31 01:53:08;;;;;;;4.38;3.28;;;10.40;99.90;;;;;;4214968;28;20412;-65
2023/12/31 01:55:12;;;;;;;5.47;3.42;;;10.40;99.90;;;;;;4214726;28;20075;-65
2023/12/31 01:57:15;;;;;;;4.68;3.22;;;10.40;99.90;;;;;;4214731;28;20131;-66
2023/12/31 01:59:17;;;;;;;6.85;3.17;;;10.40;99.90;;;;;;4214703;28;20101;-66
2023/12/31 02:01:21;;;;;;;3.95;3.10;;;10.30;99.90;;;;;;4210760;28;20135;-65
2023/12/31 02:03:25;;;;;;;4.43;2.60;;;10.30;99.90;;;;;;4231822;28;20048;-65
2023/12/31 02:05:31;;;;;;;3.13;2.70;;;10.40;99.90;;;;;;4231746;28;20053;-65
2023/12/31 02:07:33;;;;;;;5.72;3.10;;;10.40;99.90;;;;;;4231768;28;20047;-65
2023/12/31 02:09:35;;;;;;;3.95;2.55;;;10.40;99.90;;;;;;4231370;28;20047;-66
2023/12/31 02:11:39;;;;;;;4.32;3.10;;;10.40;99.90;;;;;;4231500;28;20506;-66
2023/12/31 02:13:41;;;;;;;4.72;3.10;;;10.40;99.90;;;;;;4230900;28;20075;-65
2023/12/31 02:15:43;;;;;;;3.28;2.78;;;10.40;99.90;;;;;;4231285;28;20044;-65
2023/12/31 02:17:45;;;;;;;6.78;2.88;;;10.40;99.90;;;;;;4231669;28;20044;-65
2023/12/31 02:19:47;;;;;;;4.72;2.63;;;10.40;99.90;;;;;;4231658;28;20129;-65
2023/12/31 02:21:50;;;;;;;6.47;2.72;;;10.50;99.90;;;;;;4231637;28;20101;-65
2023/12/31 02:23:52;;;;;;;4.15;2.78;;;10.40;99.90;;;;;;4213598;28;20233;-64
2023/12/31 02:26:06;;;;;;;4.20;2.78;;;10.40;99.90;;;;;;4231952;28;20165;-66
2023/12/31 02:28:11;;;;;;;3.45;2.85;;;10.50;99.90;;;;;;4231757;28;20521;-67
2023/12/31 02:30:13;;;;;;;4.30;2.75;;;10.50;99.90;;;;;;4231204;28;20055;-66
2023/12/31 02:32:15;;;;;;;5.68;2.90;;;10.50;99.90;;;;;;4213634;28;20040;-66
2023/12/31 02:34:19;;;;;;;3.90;2.80;;;10.40;99.90;;;;;;4231828;28;20119;-69
2023/12/31 02:36:22;;;;;;;4.97;2.60;;;10.40;99.90;;;;;;4231447;28;20043;-65
2023/12/31 02:38:24;;;;;;;4.07;2.40;;;10.40;99.90;;;;;;4231506;28;20554;-66
2023/12/31 02:40:26;;;;;;;7.40;2.70;;;10.40;99.90;;;;;;4231429;28;20044;-65
2023/12/31 02:42:30;;;;;;;3.67;2.78;;;10.40;99.90;;;;;;4231565;28;20079;-66
2023/12/31 02:44:32;;;;;;;3.88;2.30;;;10.50;99.90;;;;;;4230778;28;20047;-67
2023/12/31 02:46:34;;;;;;;3.22;2.20;;;10.50;99.90;;;;;;4231246;28;20096;-66
2023/12/31 02:48:36;;;;;;;4.13;2.58;;;10.50;99.90;;;;;;4231312;28;20075;-64
2023/12/31 02:50:38;;;;;;;5.43;2.50;;;10.50;99.90;;;;;;4230481;28;20047;-65
2023/12/31 02:52:41;;;;;;;2.90;2.50;;;10.50;99.90;;;;;;4230976;28;20395;-65
2023/12/31 02:54:45;;;;;;;3.35;2.03;;;10.50;99.90;;;;;;4230548;28;20046;-64
2023/12/31 02:56:47;;;;;;;4.43;2.50;;;10.50;99.90;;;;;;4231027;28;20043;-64
2023/12/31 02:58:50;;;;;;;3.97;2.53;;;10.50;99.90;;;;;;4212454;28;20683;-65
2023/12/31 03:00:53;;;;;;;3.33;2.42;;;10.50;99.90;;;;;;4230704;28;20115;-65
2023/12/31 03:02:55;;;;;;;4.93;2.47;;;10.60;99.90;;;;;;4230558;28;20043;-66
2023/12/31 03:04:57;;;;;;;4.25;2.22;;;10.60;99.90;;;;;;4230858;28;20050;-65
2023/12/31 03:06:59;;;;;;;2.20;1.88;;;10.60;99.90;;;;;;4230415;28;20043;-65
2023/12/31 03:09:02;;;;;;;3.03;2.10;;;10.60;99.90;;;;;;4230241;28;20048;-64
2023/12/31 03:11:06;;;;;;;3.85;2.35;;;10.70;99.90;;;;;;4212244;28;20052;-64
2023/12/31 03:13:08;;;;;;;3.53;1.73;;;10.70;99.90;;;;;;4230190;28;20100;-66
2023/12/31 03:15:12;;;;;;;7.40;2.30;;;10.70;99.90;;;;;;4230144;28;20521;-64
2023/12/31 03:17:14;;;;;;;3.58;1.95;;;10.70;99.90;;;;;;4230022;28;20082;-69
2023/12/31 03:19:18;;;;;;;2.95;2.20;;;10.70;99.90;;;;;;4230722;28;20387;-65
2023/12/31 03:21:20;;;;;;;3.08;2.03;;;10.80;99.90;;;;;;4230834;28;20470;-64
2023/12/31 03:23:22;;;;;;;2.72;1.92;;;10.80;99.90;;;;;;4230348;28;20066;-65
2023/12/31 03:25:24;;;;;;;5.35;2.15;;;10.90;99.90;;;;;;4230258;28;20044;-64
2023/12/31 03:27:31;;;;;;;3.28;2.10;;;10.80;99.90;;;;;;4230217;28;20044;-68
2023/12/31 03:29:38;;;;;;;2.50;1.83;;;10.90;99.90;;;;;;4212688;28;20068;-65
2023/12/31 03:31:42;;;;;;;2.33;1.85;;;10.90;99.90;;;;;;4230234;28;20052;-65
2023/12/31 03:33:46;;;;;;;2.78;1.98;;;10.90;99.90;;;;;;4230324;28;20047;-66
2023/12/31 03:35:48;;;;;;;2.90;1.98;;;10.90;99.90;;;;;;4230373;28;20092;-67
2023/12/31 03:37:50;;;;;;;5.50;1.90;;;10.90;99.90;;;;;;4230165;28;20140;-64
2023/12/31 03:39:54;;;;;;;2.63;1.70;;;10.90;99.90;;;;;;4230152;28;20118;-64
2023/12/31 03:41:56;;;;;;;4.47;2.00;;;10.90;99.90;;;;;;4229978;28;20562;-65
2023/12/31 03:44:00;;;;;;;4.18;1.75;;;10.90;99.90;;;;;;4230353;28;20051;-65
2023/12/31 03:46:02;;;;;;;3.08;1.75;;;11.00;99.90;;;;;;4230031;28;20051;-64
2023/12/31 03:48:06;;;;;;;4.05;1.60;;;11.00;99.90;;;;;;4230276;28;20043;-64
2023/12/31 03:50:12;;;;;;;2.13;1.52;;;11.10;99.90;;;;;;4230298;28;20081;-65
2023/12/31 03:52:14;;;;;;;3.03;2.00;;;11.10;99.90;;;;;;4230146;28;20055;-66
2023/12/31 03:54:16;;;;;;;2.90;1.70;;;11.20;99.90;;;;;;4230534;28;20493;-65
2023/12/31 03:56:18;;;;;;;2.55;1.75;;;11.20;99.90;;;;;;4230179;28;20127;-66
2023/12/31 03:58:20;;;;;;;4.50;1.77;;;11.10;99.90;;;;;;4230501;28;20077;-66
2023/12/31 04:00:22;;;;;;;3.88;1.55;;;11.10;99.90;;;;;;4230794;28;20472;-65
2023/12/31 04:02:24;;;;;;;3.10;1.70;;;11.10;99.90;;;;;;4231283;28;20054;-66
2023/12/31 04:04:29;;;;;;;3.70;1.67;;;11.10;99.90;;;;;;4230938;28;20043;-67
2023/12/31 04:06:32;;;;;;;4.72;2.05;;;11.10;99.90;;;;;;4231946;28;20051;-66
2023/12/31 04:08:34;;;;;;;2.90;1.70;;;11.00;99.90;;;;;;4233461;28;20078;-64
2023/12/31 04:10:36;;;;;;;2.13;1.83;;;11.00;99.90;;;;;;4233041;28;20043;-65
2023/12/31 04:12:38;;;;;;;2.88;1.70;;;11.00;99.90;;;;;;4232113;28;20061;-65
2023/12/31 04:14:40;;;;;;;2.83;1.80;;;11.00;99.90;;;;;;4220941;28;20068;-65
2023/12/31 04:16:42;;;;;;;5.20;2.08;;;11.00;99.90;;;;;;4216180;28;20398;-65
2023/12/31 04:18:44;;;;;;;4.70;2.10;;;11.00;99.90;;;;;;4216372;28;20044;-65
2023/12/31 04:20:48;;;;;;;3.45;1.60;;;11.00;99.90;;;;;;4216017;28;20048;-65
2023/12/31 04:22:50;;;;;;;4.22;1.63;;;10.90;99.90;;;;;;4216443;28;20431;-65
2023/12/31 04:24:55;;;;;;;4.00;1.55;;;10.90;99.90;;;;;;4215753;28;20132;-65
2023/12/31 04:27:00;;;;;;;8.27;1.75;;;10.80;99.90;;;;;;4216144;28;20045;-65
2023/12/31 04:29:02;;;;;;;2.00;1.48;;;10.70;99.90;;;;;;4216201;28;20457;-65
2023/12/31 04:31:04;;;;;;;2.80;1.05;;;10.70;99.90;;;;;;4216100;28;20056;-65
2023/12/31 04:33:07;;;;;;;3.38;1.30;;;10.70;99.90;;;;;;4215909;28;20056;-65
2023/12/31 04:35:09;;;;;;;3.00;1.38;;;10.60;99.90;;;;;;4215830;28;20064;-65
2023/12/31 04:37:12;;;;;;;1.48;1.20;;;10.60;99.90;;;;;;4215763;28;20044;-65
2023/12/31 04:39:14;;;;;;;1.95;1.13;;;10.60;99.90;;;;;;4215247;28;20055;-65
2023/12/31 04:41:21;;;;;;;1.48;1.02;;;10.60;99.90;;;;;;4215917;28;20078;-65
2023/12/31 04:43:23;;;;;;;1.75;0.90;;;10.50;99.90;;;;;;4215922;28;20486;-65
2023/12/31 04:45:25;;;;;;;4.25;0.90;;;10.50;99.90;;;;;;4215463;28;20048;-65
2023/12/31 04:47:27;;;;;;;6.28;0.98;;;10.40;99.90;;;;;;4197671;28;20044;-65
2023/12/31 04:49:30;;;;;;;1.00;0.68;;;10.40;99.90;;;;;;4215783;28;20164;-65
2023/12/31 04:51:32;;;;;;;1.75;0.80;;;10.40;99.90;;;;;;4215671;28;20437;-64
2023/12/31 04:53:36;;;;;;;3.38;0.80;;;10.40;99.90;;;;;;4215558;28;20044;-65
2023/12/31 04:55:38;;;;;;;2.80;1.00;;;10.30;99.90;;;;;;4215209;28;20048;-65
2023/12/31 04:57:40;;;;;;;11.80;0.90;;;10.40;99.90;;;;;;4215827;28;20044;-65
2023/12/31 04:59:42;;;;;;;1.90;0.80;;;10.30;99.90;;;;;;4215962;28;20071;-65
2023/12/31 05:01:48;;;;;;;1.80;0.75;;;10.30;99.90;;;;;;4232457;28;20052;-65
2023/12/31 05:03:50;;;;;;;3.95;1.08;;;10.30;99.90;;;;;;4232767;28;20054;-64
2023/12/31 05:05:55;;;;;;;3.38;0.95;;;10.20;99.90;;;;;;4232637;28;20105;-66
2023/12/31 05:07:57;;;;;;;2.03;0.90;;;10.20;99.90;;;;;;4232568;28;20043;-66
2023/12/31 05:10:02;;;;;;;5.05;1.13;;;10.20;99.90;;;;;;4231925;28;20043;-66
2023/12/31 05:12:05;;;;;;;5.05;1.35;;;10.20;99.90;;;;;;4232681;28;20119;-65
2023/12/31 05:14:07;;;;;;;4.97;1.55;;;10.20;99.90;;;;;;4214438;28;20145;-67
2023/12/31 05:16:10;;;;;;;5.55;1.00;;;10.10;99.90;;;;;;4214061;28;20052;-65
2023/12/31 05:18:13;;;;;;;6.13;1.23;;;10.10;99.90;;;;;;4231822;28;20055;-65
2023/12/31 05:20:15;;;;;;;4.28;0.95;;;10.10;99.90;;;;;;4232058;28;20131;-65
2023/12/31 05:22:20;;;;;;;5.32;1.40;;;10.00;99.90;;;;;;4232776;28;20422;-65
2023/12/31 05:24:22;;;;;;;;;;;10.10;99.90;;;;;;4233382;28;20055;-66
2023/12/31 05:26:25;;;;;;;4.70;1.10;;;10.10;99.90;;;;;;4232884;28;20263;-65
2023/12/31 05:28:27;;;;;;;4.80;1.38;;;10.00;99.90;;;;;;4214034;28;20510;-65
2023/12/31 05:30:30;;;;;;;5.43;0.90;;;10.00;99.90;;;;;;4231694;28;20116;-65
2023/12/31 05:32:32;;;;;;;5.20;1.27;;;10.10;99.90;;;;;;4213433;28;20052;-65
2023/12/31 05:34:34;;;;;;;4.30;0.82;;;10.10;99.90;;;;;;4231998;28;20464;-66
2023/12/31 05:36:36;;;;;;;6.05;1.17;;;10.10;99.90;;;;;;4232139;28;20043;-66
2023/12/31 05:38:38;;;;;;;6.15;1.15;;;10.10;99.90;;;;;;4231761;28;20048;-65
2023/12/31 05:40:41;;;;;;;6.35;1.38;;;10.10;99.90;;;;;;4231883;28;20052;-65
2023/12/31 05:42:45;;;;;;;8.48;1.40;;;10.10;99.90;;;;;;4231698;28;20082;-66
2023/12/31 05:44:48;;;;;;;7.53;1.40;;;10.00;99.90;;;;;;4231917;28;20440;-65
2023/12/31 05:46:50;;;;;;;3.88;1.20;;;10.00;99.90;;;;;;4232008;28;20078;-65
2023/12/31 05:48:52;;;;;;;6.40;1.25;;;10.00;99.90;;;;;;4231731;28;20048;-65
2023/12/31 05:50:56;;;;;;;5.30;1.02;;;10.00;99.90;;;;;;4213751;28;20082;-65
2023/12/31 05:52:58;;;;;;;10.48;2.05;;;10.00;99.90;;;;;;4231841;28;20062;-68
2023/12/31 05:55:00;;;;;;;7.78;1.45;;;10.00;99.90;;;;;;4213700;28;20103;-65
2023/12/31 05:57:02;;;;;;;4.30;1.20;;;9.90;99.90;;;;;;4231756;28;20437;-65
2023/12/31 05:59:06;;;;;;;4.07;1.20;;;9.90;99.90;;;;;;4231746;28;20051;-66
2023/12/31 06:01:08;;;;;;;5.35;1.33;;;9.80;99.90;;;;;;4231744;28;20427;-66
2023/12/31 06:03:10;;;;;;;6.68;1.75;;;9.80;99.90;;;;;;4231732;28;20071;-66
2023/12/31 06:05:13;;;;;;;4.45;1.30;;;9.80;99.90;;;;;;4231690;28;20055;-65
2023/12/31 06:07:16;;;;;;;5.05;1.13;;;9.80;99.90;;;;;;4231564;28;20047;-65
2023/12/31 06:09:19;;;;;;;3.28;0.90;;;9.70;99.90;;;;;;4213480;28;20573;-65
2023/12/31 06:11:21;;;;;;;6.93;1.40;;;9.70;99.90;;;;;;4231411;28;20050;-66
2023/12/31 06:13:23;;;;;;;6.18;1.10;;;9.70;99.90;;;;;;4230136;28;20548;-66
2023/12/31 06:15:26;;;;;;;5.85;1.38;;;9.70;99.90;;;;;;4214562;28;20064;-65
2023/12/31 06:17:29;;;;;;;3.72;0.85;;;9.60;99.90;;;;;;4214160;28;20040;-65
2023/12/31 06:19:31;;;;;;;4.05;1.33;;;9.60;99.90;;;;;;4214569;28;20055;-66
2023/12/31 06:21:34;;;;;;;4.45;1.25;;;9.60;99.90;;;;;;4213961;28;20414;-65
2023/12/31 06:23:36;;;;;;;6.35;1.23;;;9.60;99.90;;;;;;4214232;28;20044;-65
2023/12/31 06:25:38;;;;;;;3.88;0.80;;;9.60;99.90;;;;;;4214195;28;20043;-66
2023/12/31 06:27:41;;;;;;;4.63;1.27;;;9.60;99.90;;;;;;4214555;28;20093;-65
2023/12/31 06:29:43;;;;;;;4.68;1.10;;;9.70;99.90;;;;;;4213636;28;20055;-65
2023/12/31 06:31:47;;;;;;;3.08;0.77;;;9.70;99.90;;;;;;4214673;28;20050;-65
2023/12/31 06:33:49;;;;;;;3.92;1.08;;;9.70;99.90;;;;;;4214529;28;20098;-65
2023/12/31 06:35:51;;;;;;;3.55;0.80;;;9.70;99.90;;;;;;4213951;28;20040;-65
2023/12/31 06:37:53;;;;;;;3.42;0.80;;;9.70;99.90;;;;;;4214168;28;20063;-65
2023/12/31 06:39:55;;;;;;;3.70;0.63;;;9.70;99.90;;;;;;4214253;28;20048;-64
2023/12/31 06:41:58;;;;;;;3.80;0.80;;;9.70;99.90;;;;;;4214730;28;20471;-64
2023/12/31 06:44:00;;;;;;;2.25;0.80;;;9.70;99.90;;;;;;4216478;28;20052;-67
2023/12/31 06:46:03;;;;;;;3.05;1.13;;;9.70;99.90;;;;;;4215452;28;20299;-65
2023/12/31 06:48:07;;;;;;;4.75;0.77;;;9.80;99.90;;;;;;4215165;28;20051;-68
2023/12/31 06:50:11;;;;;;;5.37;0.97;;;9.70;99.90;;;;;;4215486;28;20089;-64
2023/12/31 06:52:13;;;;;;;1.40;0.60;;;9.70;99.90;;;;;;4215835;28;20101;-64
2023/12/31 06:54:15;;;;;;;3.42;0.63;;;9.70;99.90;;;;;;4215990;28;20040;-63
2023/12/31 06:56:18;;;;;;;3.95;0.80;;;9.70;99.90;;;;;;4215517;28;20051;-66
2023/12/31 06:58:20;;;;;;;3.75;1.02;;;9.70;99.90;;;;;;4215244;28;20082;-65
2023/12/31 07:00:23;;;;;;;3.38;0.98;;;9.70;99.90;;;;;;4221806;28;20049;-66
2023/12/31 07:02:25;;;;;;;4.10;0.82;;;9.70;99.90;;;;;;4233139;28;20166;-66
2023/12/31 07:04:29;;;;;;;3.83;0.65;;;9.70;99.90;;;;;;4231285;28;20479;-66
2023/12/31 07:06:31;;;;;;;7.38;1.15;;;9.70;99.90;;;;;;4231328;28;20156;-66
2023/12/31 07:08:33;;;;;;;2.80;0.80;;;9.70;99.90;;;;;;4231402;28;20054;-67
2023/12/31 07:10:35;;;;;;;3.65;0.82;;;9.70;99.90;;;;;;4231276;28;20046;-65
2023/12/31 07:12:38;;;;;;;6.20;1.48;;;9.70;99.90;;;;;;4231297;28;20048;-66
2023/12/31 07:14:40;;;;;;;2.72;1.02;;;9.70;99.90;;;;;;4218912;28;20048;-66
2023/12/31 07:16:42;;;;;;;4.15;0.90;;;9.70;99.90;;;;;;4213934;28;20048;-66
2023/12/31 07:18:44;;;;;;;3.95;1.02;;;9.70;99.90;;;;;;4213342;28;20123;-65
2023/12/31 07:20:49;;;;;;;5.07;0.80;;;9.70;99.90;;;;;;4213568;28;20144;-65
2023/12/31 07:22:53;;;;;;;4.38;1.23;;;9.60;99.90;;;;;;4213616;28;20475;-65
2023/12/31 07:24:55;;;;;;;5.65;0.88;;;9.50;99.90;;;;;;4213676;28;20044;-65
2023/12/31 07:26:57;;;;;;;11.68;1.20;;;9.50;99.90;;;;;;4195897;28;20458;-66
2023/12/31 07:29:01;;;;;;;5.68;1.02;;;9.50;99.90;;;;;;4214189;28;20123;-65
2023/12/31 07:31:12;;;;;;;5.90;1.52;;;9.50;99.90;;;;;;4197504;28;20052;-67
2023/12/31 07:33:14;;;;;;;7.82;2.35;;;9.50;99.90;;;;;;4213602;28;20054;-66
2023/12/31 07:35:17;;;;;;;3.28;1.33;;;9.40;99.90;;;;;;4213754;28;20044;-65
2023/12/31 07:37:21;;;;;;;6.45;1.27;;;9.40;99.90;;;;;;4213613;28;20048;-65
2023/12/31 07:39:26;;;;;;;6.75;1.45;;;9.40;99.90;;;;;;4213459;28;20410;-65
2023/12/31 07:41:30;;;;;;;9.52;1.45;;;9.40;99.90;;;;;;4217132;28;20044;-65
2023/12/31 07:43:32;;;;;;;8.05;1.65;;;9.40;99.90;;;;;;4216874;28;20051;-66
2023/12/31 07:45:35;;;;;;;3.38;1.02;;;9.30;99.90;;;;;;4217221;28;20056;-64
2023/12/31 07:47:39;;;;;;;8.73;1.85;;;9.30;99.90;;;;;;4217067;28;20071;-65
2023/12/31 07:49:41;;;;;;;6.68;1.45;;;9.30;99.90;;;;;;4217008;28;20050;-65
2023/12/31 07:51:43;;;;;;;10.77;1.83;;;9.30;99.90;;;;;;4216839;28;20062;-65
2023/12/31 07:53:47;;;;;;;6.18;1.70;;;9.30;99.90;;;;;;4217127;28;20064;-65
2023/12/31 07:55:49;;;;;;;7.13;1.50;;;9.30;99.90;;;;;;4216624;28;20044;-65
2023/12/31 07:57:51;;;;;;;7.85;1.75;;;9.30;99.90;;;;;;4216277;28;20048;-67
2023/12/31 07:59:53;;;;;;;8.20;1.92;;;9.30;99.90;;;;;;4202811;28;20049;-64
2023/12/31 08:01:55;;;;;;;6.47;1.83;;;9.30;99.90;;;;;;4233766;28;20047;-64
2023/12/31 08:03:58;;;;;;;7.88;1.50;;;9.30;99.90;;;;;;4233506;28;20162;-65
2023/12/31 08:06:00;;;;;;;8.00;1.85;;;9.40;99.90;;;;;;4234137;28;20051;-68
2023/12/31 08:08:02;;;;;;;4.68;1.48;;;9.40;99.90;;;;;;4234547;28;20126;-66
2023/12/31 08:10:07;;;;;;;6.28;1.40;;;9.40;99.90;;;;;;4234688;28;20405;-66
2023/12/31 08:12:09;;;;;;;;;;;9.40;99.90;;;;;;4234496;28;20391;-66
2023/12/31 08:14:12;;;;;;;6.60;1.58;;;9.40;99.90;;;;;;4225143;28;20007;-66
2023/12/31 08:16:14;;;;;;;8.05;1.67;;;9.40;99.90;;;;;;4216453;28;20081;-65
2023/12/31 08:18:17;;;;;;;11.30;2.05;;;9.40;99.90;;;;;;4216315;28;20451;-67
2023/12/31 08:20:19;;;;;;;12.27;1.98;;;9.40;99.90;;;;;;4216524;28;20048;-65
2023/12/31 08:22:21;;;;;;;8.63;2.05;;;9.40;99.90;;;;;;4216319;28;20044;-65
2023/12/31 08:24:23;;;;;;;7.75;1.98;;;9.40;99.90;;;;;;4216220;28;20483;-65
2023/12/31 08:26:27;;;;;;;12.52;2.38;;;9.40;99.90;;;;;;4215020;28;20044;-67
2023/12/31 08:28:33;;;;;;;12.40;2.20;;;9.40;99.90;;;;;;4216245;28;20512;-65
2023/12/31 08:30:35;;;;;;;11.82;1.85;;;9.40;99.90;;;;;;4216169;28;20074;-64
2023/12/31 08:32:38;;;;;;;7.93;1.80;;;9.30;99.90;;;;;;4215882;28;20099;-64
2023/12/31 08:34:40;;;;;;;11.23;1.80;;;9.40;99.90;;;;;;4217126;28;20047;-66
2023/12/31 08:36:42;;;;;;;11.35;2.10;;;9.40;99.90;;;;;;4218717;28;20066;-69
2023/12/31 08:38:44;;;;;;;8.02;1.65;;;9.40;99.90;;;;;;4218306;28;20067;-65
2023/12/31 08:40:46;;;;;;;11.65;2.10;;;9.40;99.90;;;;;;4217005;28;20043;-66
2023/12/31 08:42:51;;;;;;;11.00;2.38;;;9.40;99.90;;;;;;4200847;28;20094;-68
2023/12/31 08:44:54;;;;;;;9.93;1.70;;;9.50;99.90;;;;;;4218111;28;20449;-65
2023/12/31 08:47:08;;;;;;;10.00;2.28;;;9.40;99.90;;;;;;4198022;28;20052;-64
2023/12/31 08:49:10;;;;;;;9.98;2.30;;;9.40;99.90;;;;;;4217754;28;20536;-67
2023/12/31 08:51:12;;;;;;;11.77;2.65;;;9.40;99.90;;;;;;4216445;28;20079;-66
2023/12/31 08:53:15;;;;;;;9.40;2.20;;;9.40;99.90;;;;;;4217208;28;20052;-70
2023/12/31 08:55:17;;;;;;;11.38;2.50;;;9.40;99.90;;;;;;4198519;28;20064;-64
2023/12/31 08:57:20;;;;;;;14.35;3.08;;;9.40;99.90;;;;;;4216122;28;20167;-70
2023/12/31 08:59:23;;;;;;;12.48;2.70;;;9.40;99.90;;;;;;4215915;28;20479;-64
2023/12/31 09:01:25;;;;;;;16.20;2.65;;;9.40;99.90;;;;;;4230706;28;20426;-65
2023/12/31 09:03:27;;;;;;;11.30;2.80;;;9.40;99.90;;;;;;4232533;28;20055;-65
2023/12/31 09:05:32;;;;;;;9.82;2.35;;;9.50;99.90;;;;;;4214317;28;20043;-64
2023/12/31 09:07:35;;;;;;;;;;;9.50;99.90;;;;;;4232905;28;20048;-65
2023/12/31 09:09:37;;;;;;;19.98;3.30;;;9.50;99.90;;;;;;4232397;28;19972;-66
2023/12/31 09:11:39;;;;;;;10.15;2.67;;;9.50;99.90;;;;;;4232536;28;20544;-65
2023/12/31 09:13:43;;;;;;;12.13;2.47;;;9.50;99.90;;;;;;4232560;28;20134;-66
2023/12/31 09:15:47;;;;;;;17.08;3.33;;;9.60;99.90;;;;;;4231953;28;20481;-66
2023/12/31 09:17:49;;;;;;;17.23;2.88;;;9.70;99.90;;;;;;4231997;28;20078;-66
2023/12/31 09:19:55;;;;;;;14.85;3.00;;;9.70;99.90;;;;;;4232269;28;20104;-66
2023/12/31 09:21:57;;;;;;;16.80;2.95;;;9.80;99.90;;;;;;4232306;28;20062;-66
2023/12/31 09:23:59;;;;;;;16.52;2.78;;;9.90;99.90;;;;;;4232497;28;20071;-66
2023/12/31 09:26:01;;;;;;;13.75;3.10;;;10.00;99.90;;;;;;4232372;28;20544;-66
2023/12/31 09:28:04;;;;;;;17.08;3.17;;;9.90;99.90;;;;;;4232100;28;20509;-66
2023/12/31 09:30:08;;;;;;;12.75;2.95;;;10.00;99.90;;;;;;4231584;28;20424;-66
2023/12/31 09:32:12;;;;;;;14.27;3.33;;;9.90;99.90;;;;;;4232716;28;20077;-67
2023/12/31 09:34:14;;;;;;;15.50;3.30;;;9.90;99.90;;;;;;4233037;28;20494;-65
2023/12/31 09:36:17;;;;;;;16.23;3.53;;;9.90;99.90;;;;;;4232797;28;20509;-66
2023/12/31 09:38:19;;;;;;;18.52;3.92;;;9.90;99.90;;;;;;4232348;28;20483;-67
2023/12/31 09:40:21;;;;;;;15.75;3.63;;;9.90;99.90;;;;;;4232236;28;20551;-66
2023/12/31 09:42:33;;;;;;;19.02;4.00;;;9.90;99.90;;;;;;4231873;28;20055;-65
2023/12/31 09:44:35;;;;;;;21.85;4.15;;;9.90;99.90;;;;;;4231378;28;20044;-68
2023/12/31 09:46:39;;;;;;;18.92;3.65;;;9.90;99.90;;;;;;4231818;28;20074;-65
2023/12/31 09:48:43;;;;;;;14.68;3.35;;;9.90;99.90;;;;;;4213562;28;20511;-65
2023/12/31 09:50:47;;;;;;;13.30;2.70;;;9.90;99.90;;;;;;4231770;28;20138;-65
2023/12/31 09:52:50;;;;;;;19.10;4.15;;;9.90;99.90;;;;;;4232108;28;20379;-67
2023/12/31 09:54:54;;;;;;;20.08;4.00;;;9.90;99.90;;;;;;4232047;28;20122;-71
2023/12/31 09:56:57;;;;;;;20.05;3.65;;;9.90;99.90;;;;;;4231981;28;20055;-65
2023/12/31 09:59:02;;;;;;;21.20;4.07;;;9.90;99.90;;;;;;4213501;28;20055;-65
2023/12/31 10:01:07;;;;;;;24.17;4.65;;;10.00;99.90;;;;;;4231125;28;20534;-65
2023/12/31 10:03:10;;;;;;;20.00;4.65;;;10.00;99.90;;;;;;4231465;28;20048;-66
2023/12/31 10:05:16;;;;;;;25.05;4.70;;;10.00;99.90;;;;;;4231436;28;20093;-66
2023/12/31 10:07:20;;;;;;;20.05;4.03;;;10.00;99.90;;;;;;4231789;28;20051;-65
2023/12/31 10:09:27;;;;;;;14.82;3.33;;;10.10;99.90;;;;;;4231362;28;20370;-65
2023/12/31 10:11:35;;;;;;;16.60;4.68;;;10.10;99.90;;;;;;4231323;28;20040;-65
2023/12/31 10:13:37;;;;;;;24.42;5.28;;;10.10;99.90;;;;;;4227874;28;20448;-65
2023/12/31 10:15:42;;;;;;;26.42;4.85;;;10.20;99.90;;;;;;4196805;28;20044;-66
2023/12/31 10:17:46;;;;;;;25.70;4.75;;;10.20;99.90;;;;;;4214450;28;20067;-65
2023/12/31 10:19:49;;;;;;;18.55;4.40;;;10.30;99.90;;;;;;4214540;28;20077;-65
2023/12/31 10:21:52;;;;;;;20.38;4.90;;;10.30;99.90;;;;;;4214573;28;20403;-65
2023/12/31 10:23:54;;;;;;;23.98;5.20;;;10.40;99.90;;;;;;4214479;28;20058;-66
2023/12/31 10:25:57;;;;;;;20.73;4.55;;;10.40;99.90;;;;;;4214667;28;20059;-65
2023/12/31 10:27:59;;;;;;;21.65;5.15;;;10.50;99.90;;;;;;4214279;28;20047;-65
2023/12/31 10:30:03;;;;;;;19.25;4.90;;;10.50;99.90;;;;;;4214465;28;20086;-65
2023/12/31 10:32:06;;;;;;;26.77;4.93;;;10.60;99.90;;;;;;4214453;28;20094;-67
2023/12/31 10:34:15;;;;;;;21.48;4.78;;;10.60;99.90;;;;;;4214653;28;20051;-67
2023/12/31 10:36:22;;;;;;;30.00;5.13;;;10.70;99.90;;;;;;4214831;28;20068;-66
2023/12/31 10:38:25;;;;;;;22.13;5.28;;;10.80;99.90;;;;;;4214606;28;20052;-66
2023/12/31 10:40:28;;;;;;;26.80;5.20;;;10.80;99.90;;;;;;4214637;28;20064;-65
2023/12/31 10:42:30;;;;;;;24.23;5.00;;;10.80;99.90;;;;;;4214178;28;20054;-66